createdAt,value
2018-05-02T00:00:47.223Z,73.57
2018-05-02T00:01:47.240Z,73.10
2018-05-02T00:03:40.380Z,73.38
2018-05-02T00:04:40.379Z,73.67
2018-05-02T00:06:33.272Z,73.67
2018-05-02T00:07:33.289Z,73.48
2018-05-02T00:09:26.396Z,73.48
2018-05-02T00:10:26.388Z,73.38
2018-05-02T00:12:19.303Z,73.48
2018-05-02T00:13:19.300Z,73.38
2018-05-02T00:15:12.194Z,73.67
2018-05-02T00:16:12.210Z,74.52
2018-05-02T00:18:05.262Z,74.05
2018-05-02T00:19:05.253Z,74.24
2018-05-02T00:20:58.152Z,74.62
2018-05-02T00:21:58.168Z,74.33
2018-05-02T00:23:51.080Z,74.01
2018-05-02T00:24:51.077Z,74.39
2018-05-02T00:26:44.202Z,74.81
2018-05-02T00:27:44.219Z,74.81
2018-05-02T00:29:37.132Z,74.43
2018-05-02T00:30:37.128Z,74.43
2018-05-02T00:32:30.042Z,75.19
2018-05-02T00:33:30.041Z,75.05
2018-05-02T00:35:22.935Z,75.15
2018-05-02T00:36:22.950Z,74.87
2018-05-02T00:38:15.861Z,75.15
2018-05-02T00:39:15.858Z,75.24
2018-05-02T00:41:08.752Z,75.28
2018-05-02T00:42:08.769Z,75.24
2018-05-02T00:44:01.684Z,75.15
2018-05-02T00:45:01.687Z,75.24
2018-05-02T00:46:54.575Z,75.81
2018-05-02T00:47:54.590Z,75.53
2018-05-02T00:49:47.508Z,75.62
2018-05-02T00:50:47.507Z,75.91
2018-05-02T00:52:40.599Z,75.91
2018-05-02T00:53:40.596Z,75.72
2018-05-02T00:55:33.495Z,76.39
2018-05-02T00:56:33.515Z,76.39
2018-05-02T00:58:26.423Z,76.48
2018-05-02T00:59:26.425Z,76.57
2018-05-02T01:01:19.316Z,77.14
2018-05-02T01:02:19.330Z,77.24
2018-05-02T01:04:12.244Z,77.62
2018-05-02T01:05:12.243Z,77.14
2018-05-02T01:07:05.142Z,76.76
2018-05-02T01:08:05.159Z,77.14
2018-05-02T01:09:58.070Z,77.71
2018-05-02T01:10:58.065Z,77.90
2018-05-02T01:12:50.981Z,77.62
2018-05-02T01:13:50.980Z,77.62
2018-05-02T01:15:43.871Z,78.28
2018-05-02T01:16:43.888Z,78.38
2018-05-02T01:18:36.801Z,78.75
2018-05-02T01:19:36.797Z,78.75
2018-05-02T01:21:29.693Z,78.47
2018-05-02T01:22:29.709Z,78.56
2018-05-02T01:24:22.781Z,78.56
2018-05-02T01:25:22.778Z,78.56
2018-05-02T01:27:15.678Z,78.66
2018-05-02T01:28:15.693Z,78.85
2018-05-02T01:30:08.798Z,79.33
2018-05-02T01:31:08.800Z,79.61
2018-05-02T01:33:01.721Z,79.71
2018-05-02T01:34:01.708Z,79.99
2018-05-02T01:35:54.606Z,80.27
2018-05-02T01:36:54.618Z,80.08
2018-05-02T01:38:47.529Z,80.08
2018-05-02T01:39:47.527Z,80.27
2018-05-02T01:41:40.589Z,80.94
2018-05-02T01:42:40.604Z,80.75
2018-05-02T01:44:33.667Z,80.65
2018-05-02T01:45:33.660Z,80.75
2018-05-02T01:47:26.557Z,80.94
2018-05-02T01:48:26.571Z,81.04
2018-05-02T01:50:19.482Z,81.04
2018-05-02T01:51:19.478Z,80.94
2018-05-02T01:53:12.402Z,80.75
2018-05-02T01:54:12.404Z,80.37
2018-05-02T01:56:05.293Z,80.84
2018-05-02T01:57:05.313Z,80.94
2018-05-02T01:58:58.221Z,80.65
2018-05-02T01:59:58.219Z,80.27
2018-05-02T02:01:51.116Z,81.04
2018-05-02T02:02:51.202Z,80.94
2018-05-02T02:04:44.232Z,80.94
2018-05-02T02:05:44.233Z,80.84
2018-05-02T02:07:37.270Z,81.41
2018-05-02T02:08:37.286Z,81.23
2018-05-02T02:10:30.198Z,80.75
2018-05-02T02:11:30.195Z,80.94
2018-05-02T02:13:23.304Z,81.04
2018-05-02T02:14:23.301Z,80.65
2018-05-02T02:16:16.203Z,80.46
2018-05-02T02:17:16.217Z,80.56
2018-05-02T02:19:16.418Z,79.90
2018-05-02T02:20:09.121Z,80.08
2018-05-02T02:22:02.249Z,79.61
2018-05-02T02:23:02.264Z,79.61
2018-05-02T02:24:55.325Z,79.71
2018-05-02T02:25:55.320Z,79.33
2018-05-02T02:27:48.361Z,79.14
2018-05-02T02:28:48.380Z,79.52
2018-05-02T02:30:41.288Z,78.85
2018-05-02T02:31:41.286Z,78.95
2018-05-02T02:33:34.199Z,78.66
2018-05-02T02:34:34.201Z,78.85
2018-05-02T02:36:27.223Z,78.56
2018-05-02T02:37:27.238Z,78.75
2018-05-02T02:39:20.152Z,78.75
2018-05-02T02:40:20.150Z,78.85
2018-05-02T02:42:13.044Z,78.75
2018-05-02T02:43:13.062Z,78.85
2018-05-02T02:45:05.977Z,78.75
2018-05-02T02:46:05.974Z,78.56
2018-05-02T02:47:58.868Z,79.52
2018-05-02T02:48:58.883Z,79.23
2018-05-02T02:50:51.797Z,79.23
2018-05-02T02:51:51.794Z,79.14
2018-05-02T02:53:44.707Z,79.52
2018-05-02T02:54:44.701Z,79.90
2018-05-02T02:56:37.796Z,79.52
2018-05-02T02:57:37.811Z,79.19
2018-05-02T02:59:30.873Z,79.76
2018-05-02T03:00:30.868Z,79.57
2018-05-02T03:02:23.762Z,79.52
2018-05-02T03:03:23.781Z,79.52
2018-05-02T03:05:16.888Z,79.23
2018-05-02T03:06:16.877Z,79.23
2018-05-02T03:08:09.769Z,79.14
2018-05-02T03:09:09.782Z,79.10
2018-05-02T03:11:03.188Z,79.42
2018-05-02T03:12:03.186Z,79.10
2018-05-02T03:13:56.255Z,79.23
2018-05-02T03:14:56.249Z,79.19
2018-05-02T03:16:49.144Z,79.28
2018-05-02T03:17:49.158Z,79.28
2018-05-02T03:19:42.069Z,79.28
2018-05-02T03:20:42.067Z,79.19
2018-05-02T03:22:34.960Z,79.28
2018-05-02T03:23:34.974Z,79.66
2018-05-02T03:25:27.881Z,79.28
2018-05-02T03:26:27.880Z,79.66
2018-05-02T03:28:20.777Z,79.38
2018-05-02T03:29:20.795Z,80.14
2018-05-02T03:31:13.705Z,80.33
2018-05-02T03:32:13.699Z,80.04
2018-05-02T03:34:06.609Z,80.43
2018-05-02T03:35:06.608Z,80.14
2018-05-02T03:36:59.659Z,80.52
2018-05-02T03:37:59.678Z,80.71
2018-05-02T03:39:52.590Z,80.62
2018-05-02T03:40:52.588Z,80.33
2018-05-02T03:42:45.478Z,80.52
2018-05-02T03:43:45.494Z,80.52
2018-05-02T03:45:38.403Z,80.43
2018-05-02T03:46:38.400Z,80.43
2018-05-02T03:48:31.293Z,80.14
2018-05-02T03:49:31.309Z,80.24
2018-05-02T03:51:24.222Z,80.04
2018-05-02T03:52:24.218Z,80.14
2018-05-02T03:54:17.295Z,80.14
2018-05-02T03:55:17.290Z,80.33
2018-05-02T03:57:10.333Z,80.62
2018-05-02T03:58:10.348Z,80.43
2018-05-02T04:00:03.406Z,80.14
2018-05-02T04:01:03.405Z,80.62
2018-05-02T04:02:56.447Z,80.62
2018-05-02T04:03:56.462Z,80.71
2018-05-02T04:05:49.375Z,80.71
2018-05-02T04:06:49.371Z,81.27
2018-05-02T04:08:42.456Z,81.37
2018-05-02T04:09:42.474Z,81.66
2018-05-02T04:11:35.533Z,81.47
2018-05-02T04:12:35.529Z,81.75
2018-05-02T04:14:28.441Z,81.27
2018-05-02T04:15:28.439Z,81.18
2018-05-02T04:17:21.334Z,81.18
2018-05-02T04:18:21.352Z,81.37
2018-05-02T04:20:14.287Z,81.18
2018-05-02T04:21:14.283Z,81.85
2018-05-02T04:23:07.174Z,81.66
2018-05-02T04:24:07.190Z,81.41
2018-05-02T04:26:00.151Z,81.60
2018-05-02T04:27:00.103Z,80.75
2018-05-02T04:28:52.989Z,80.98
2018-05-02T04:29:53.006Z,80.22
2018-05-02T04:31:45.918Z,77.70
2018-05-02T04:32:45.916Z,77.75
2018-05-02T04:34:38.837Z,76.27
2018-05-02T04:35:38.832Z,76.08
2018-05-02T04:37:31.727Z,75.13
2018-05-02T04:38:31.754Z,75.23
2018-05-02T04:40:24.659Z,74.85
2018-05-02T04:41:24.656Z,74.75
2018-05-02T04:43:17.554Z,74.56
2018-05-02T04:44:17.568Z,74.85
2018-05-02T04:46:10.670Z,74.47
2018-05-02T04:47:10.678Z,73.99
2018-05-02T04:49:03.565Z,73.71
2018-05-02T04:50:03.581Z,72.95
2018-05-02T04:51:56.497Z,72.95
2018-05-02T04:52:56.491Z,73.04
2018-05-02T04:54:49.409Z,73.61
2018-05-02T04:55:49.405Z,73.71
2018-05-02T04:57:42.303Z,73.33
2018-05-02T04:58:42.320Z,73.71
2018-05-02T05:00:35.233Z,73.14
2018-05-02T05:01:35.233Z,73.04
2018-05-02T05:03:28.128Z,73.14
2018-05-02T05:04:28.143Z,73.71
2018-05-02T05:06:21.056Z,73.71
2018-05-02T05:07:21.054Z,73.52
2018-05-02T05:09:13.954Z,74.37
2018-05-02T05:10:13.969Z,74.56
2018-05-02T05:12:06.884Z,74.33
2018-05-02T05:13:06.882Z,75.47
2018-05-02T05:14:59.795Z,76.14
2018-05-02T05:16:00.021Z,76.32
2018-05-02T05:17:52.696Z,76.52
2018-05-02T05:18:52.713Z,76.90
2018-05-02T05:20:45.626Z,77.28
2018-05-02T05:21:45.624Z,77.47
2018-05-02T05:23:41.326Z,77.18
2018-05-02T05:24:43.450Z,77.09
2018-05-02T05:26:36.666Z,76.65
2018-05-02T05:27:36.665Z,76.61
2018-05-02T05:29:30.492Z,76.61
2018-05-02T05:30:29.700Z,76.42
2018-05-02T05:32:23.204Z,76.99
2018-05-02T05:33:22.621Z,77.18
2018-05-02T05:35:15.645Z,77.41
2018-05-02T05:36:15.546Z,76.99
2018-05-02T05:38:08.425Z,76.75
2018-05-02T05:39:09.024Z,76.84
2018-05-02T05:41:02.258Z,76.65
2018-05-02T05:42:02.259Z,76.65
2018-05-02T05:43:55.282Z,76.75
2018-05-02T05:44:55.775Z,76.27
2018-05-02T05:46:48.276Z,76.84
2018-05-02T05:47:48.205Z,76.93
2018-05-02T05:50:42.805Z,76.46
2018-05-02T05:52:35.344Z,76.84
2018-05-02T05:53:35.344Z,76.27
2018-05-02T05:55:28.356Z,75.93
2018-05-02T05:56:28.257Z,75.36
2018-05-02T05:58:21.153Z,75.36
2018-05-02T05:59:21.169Z,75.64
2018-05-02T06:01:14.085Z,74.82
2018-05-02T06:02:14.085Z,74.35
2018-05-02T06:04:06.981Z,72.49
2018-05-02T06:05:07.084Z,71.86
2018-05-02T06:06:59.915Z,69.23
2018-05-02T06:07:59.915Z,68.21
2018-05-02T06:09:52.831Z,64.72
2018-05-02T06:10:53.131Z,63.99
2018-05-02T06:12:45.822Z,61.83
2018-05-02T06:13:45.774Z,59.73
2018-05-02T06:15:38.700Z,59.41
2018-05-02T06:16:38.699Z,57.87
2018-05-02T06:18:31.607Z,56.02
2018-05-02T06:19:31.628Z,54.61
2018-05-02T06:21:24.550Z,52.03
2018-05-02T06:22:24.555Z,51.58
2018-05-02T06:24:17.466Z,49.95
2018-05-02T06:25:17.483Z,49.66
2018-05-02T06:27:10.414Z,50.26
2018-05-02T06:28:10.419Z,49.79
2018-05-02T06:30:03.326Z,50.26
2018-05-02T06:31:03.349Z,49.62
2018-05-02T06:32:56.282Z,49.24
2018-05-02T06:33:56.285Z,48.21
2018-05-02T06:35:49.214Z,46.94
2018-05-02T06:36:49.221Z,47.32
2018-05-02T06:38:42.134Z,47.44
2018-05-02T06:39:42.156Z,47.44
2018-05-02T06:41:35.090Z,48.02
2018-05-02T06:42:35.105Z,48.30
2018-05-02T06:44:28.016Z,47.34
2018-05-02T06:45:28.041Z,47.03
2018-05-02T06:47:20.977Z,48.66
2018-05-02T06:48:20.980Z,49.24
2018-05-02T06:50:13.906Z,48.95
2018-05-02T06:51:13.926Z,49.16
2018-05-02T06:53:06.992Z,49.26
2018-05-02T06:54:07.000Z,48.69
2018-05-02T06:55:59.938Z,48.61
2018-05-02T06:56:59.949Z,47.66
2018-05-02T06:58:52.865Z,47.27
2018-05-02T06:59:52.893Z,46.50
2018-05-02T07:01:45.829Z,45.83
2018-05-02T07:02:45.845Z,46.43
2018-05-02T07:04:38.763Z,46.62
2018-05-02T07:05:38.787Z,45.57
2018-05-02T07:07:31.722Z,46.14
2018-05-02T07:08:31.735Z,45.98
2018-05-02T07:10:24.646Z,45.76
2018-05-02T07:11:24.673Z,45.00
2018-05-02T07:13:17.732Z,45.36
2018-05-02T07:14:17.738Z,46.67
2018-05-02T07:16:10.672Z,48.21
2018-05-02T07:17:10.678Z,49.65
2018-05-02T07:19:03.707Z,48.69
2018-05-02T07:20:03.735Z,48.85
2018-05-02T07:21:56.660Z,49.52
2018-05-02T07:22:56.671Z,49.43
2018-05-02T07:24:49.578Z,49.43
2018-05-02T07:25:49.606Z,50.00
2018-05-02T07:27:42.535Z,49.24
2018-05-02T07:28:42.544Z,49.71
2018-05-02T07:30:35.474Z,50.87
2018-05-02T07:31:35.481Z,51.44
2018-05-02T07:33:28.402Z,50.67
2018-05-02T07:34:28.407Z,50.77
2018-05-02T07:36:21.339Z,49.81
2018-05-02T07:37:21.339Z,49.33
2018-05-02T07:39:14.247Z,49.71
2018-05-02T07:40:14.271Z,49.14
2018-05-02T07:42:07.278Z,49.14
2018-05-02T07:43:07.200Z,50.29
2018-05-02T07:45:00.113Z,49.62
2018-05-02T07:46:00.135Z,49.62
2018-05-02T07:47:53.062Z,48.47
2018-05-02T07:48:53.064Z,48.85
2018-05-02T07:50:45.970Z,48.75
2018-05-02T07:51:45.992Z,49.14
2018-05-02T07:53:38.920Z,49.65
2018-05-02T07:54:38.925Z,49.65
2018-05-02T07:56:31.985Z,49.16
2018-05-02T07:57:31.897Z,49.55
2018-05-02T07:59:24.807Z,48.21
2018-05-02T08:00:24.830Z,48.59
2018-05-02T08:02:17.757Z,48.02
2018-05-02T08:03:17.761Z,47.25
2018-05-02T08:05:10.671Z,47.66
2018-05-02T08:06:10.707Z,47.37
2018-05-02T08:08:03.628Z,46.89
2018-05-02T08:09:03.624Z,46.31
2018-05-02T08:10:56.595Z,44.87
2018-05-02T08:11:56.559Z,43.63
2018-05-02T08:13:49.483Z,44.30
2018-05-02T08:14:49.488Z,44.30
2018-05-02T08:16:42.414Z,44.49
2018-05-02T08:17:42.417Z,43.91
2018-05-02T08:19:35.329Z,44.68
2018-05-02T08:20:35.351Z,44.78
2018-05-02T08:22:28.277Z,43.74
2018-05-02T08:23:28.282Z,44.03
2018-05-02T08:25:21.207Z,43.55
2018-05-02T08:26:21.222Z,42.50
2018-05-02T08:28:14.148Z,42.02
2018-05-02T08:29:14.152Z,42.98
2018-05-02T08:31:08.058Z,43.07
2018-05-02T08:32:08.078Z,42.69
2018-05-02T08:34:01.026Z,43.17
2018-05-02T08:35:01.032Z,43.27
2018-05-02T08:36:53.956Z,42.13
2018-05-02T08:37:53.961Z,42.33
2018-05-02T08:39:46.871Z,41.54
2018-05-02T08:40:46.892Z,41.73
2018-05-02T08:42:39.835Z,40.39
2018-05-02T08:43:39.836Z,41.35
2018-05-02T08:45:32.753Z,41.35
2018-05-02T08:46:32.770Z,41.35
2018-05-02T08:48:25.697Z,42.30
2018-05-02T08:49:25.702Z,42.30
2018-05-02T08:51:18.609Z,42.11
2018-05-02T08:52:18.634Z,41.93
2018-05-02T08:54:11.768Z,42.50
2018-05-02T08:55:11.773Z,42.88
2018-05-02T08:57:04.700Z,42.79
2018-05-02T08:58:04.703Z,42.40
2018-05-02T08:59:57.619Z,42.40
2018-05-02T09:00:57.641Z,42.60
2018-05-02T09:02:50.571Z,41.94
2018-05-02T09:03:50.663Z,42.13
2018-05-02T09:05:43.495Z,41.75
2018-05-02T09:06:43.510Z,41.29
2018-05-02T09:08:36.443Z,39.76
2018-05-02T09:09:36.455Z,39.76
2018-05-02T09:11:29.359Z,39.64
2018-05-02T09:12:29.386Z,41.37
2018-05-02T09:14:22.444Z,41.66
2018-05-02T09:15:22.450Z,41.56
2018-05-02T09:17:15.385Z,40.79
2018-05-02T09:18:15.394Z,40.99
2018-05-02T09:20:08.298Z,40.43
2018-05-02T09:21:08.322Z,40.05
2018-05-02T09:23:01.253Z,39.76
2018-05-02T09:24:01.258Z,39.85
2018-05-02T09:25:54.170Z,41.41
2018-05-02T09:26:54.194Z,40.93
2018-05-02T09:28:47.125Z,39.87
2018-05-02T09:29:47.139Z,41.12
2018-05-02T09:31:40.046Z,39.97
2018-05-02T09:32:40.076Z,38.72
2018-05-02T09:34:33.014Z,38.91
2018-05-02T09:35:33.047Z,38.04
2018-05-02T09:37:25.948Z,37.57
2018-05-02T09:38:25.959Z,38.24
2018-05-02T09:40:18.866Z,37.95
2018-05-02T09:41:18.898Z,40.18
2018-05-02T09:43:11.817Z,39.41
2018-05-02T09:44:11.903Z,38.84
2018-05-02T09:46:04.737Z,38.74
2018-05-02T09:47:04.762Z,38.45
2018-05-02T09:48:57.697Z,37.49
2018-05-02T09:49:57.708Z,37.68
2018-05-02T09:51:50.613Z,37.79
2018-05-02T09:52:50.637Z,36.64
2018-05-02T09:54:43.571Z,36.35
2018-05-02T09:55:43.581Z,34.81
2018-05-02T09:57:36.507Z,35.97
2018-05-02T09:58:36.514Z,35.08
2018-05-02T10:00:29.431Z,36.24
2018-05-02T10:01:29.450Z,36.72
2018-05-02T10:03:22.380Z,37.20
2018-05-02T10:04:22.450Z,35.08
2018-05-02T10:06:15.308Z,37.30
2018-05-02T10:07:15.334Z,36.24
2018-05-02T10:09:08.262Z,36.91
2018-05-02T10:10:08.270Z,37.41
2018-05-02T10:12:01.182Z,38.09
2018-05-02T10:13:01.206Z,37.41
2018-05-02T10:14:54.147Z,36.54
2018-05-02T10:15:54.152Z,35.87
2018-05-02T10:17:47.079Z,34.72
2018-05-02T10:18:47.086Z,35.68
2018-05-02T10:20:39.996Z,36.25
2018-05-02T10:21:40.022Z,35.30
2018-05-02T10:23:32.949Z,34.62
2018-05-02T10:24:32.955Z,33.95
2018-05-02T10:26:25.869Z,34.31
2018-05-02T10:27:25.902Z,35.28
2018-05-02T10:29:18.825Z,35.18
2018-05-02T10:30:18.835Z,35.57
2018-05-02T10:32:11.751Z,36.16
2018-05-02T10:33:11.778Z,35.87
2018-05-02T10:35:04.710Z,35.87
2018-05-02T10:36:04.714Z,34.62
2018-05-02T10:37:57.641Z,34.81
2018-05-02T10:38:57.648Z,36.33
2018-05-02T10:40:50.732Z,35.97
2018-05-02T10:41:50.758Z,37.41
2018-05-02T10:43:43.694Z,35.58
2018-05-02T10:44:43.698Z,34.05
2018-05-02T10:46:36.613Z,35.00
2018-05-02T10:47:36.632Z,34.80
2018-05-02T10:49:29.567Z,34.41
2018-05-02T10:50:29.589Z,34.12
2018-05-02T10:52:22.481Z,35.66
2018-05-02T10:53:22.520Z,35.18
2018-05-02T10:55:15.435Z,36.15
2018-05-02T10:56:15.442Z,35.18
2018-05-02T10:58:08.370Z,36.33
2018-05-02T10:59:08.375Z,35.76
2018-05-02T11:01:01.302Z,35.47
2018-05-02T11:02:01.333Z,35.49
2018-05-02T11:03:54.244Z,34.33
2018-05-02T11:04:54.250Z,34.81
2018-05-02T11:06:47.321Z,34.43
2018-05-02T11:07:47.351Z,34.22
2018-05-02T11:09:40.278Z,35.97
2018-05-02T11:10:40.287Z,35.68
2018-05-02T11:12:33.194Z,35.20
2018-05-02T11:13:33.219Z,35.00
2018-05-02T11:15:26.300Z,35.39
2018-05-02T11:16:26.308Z,33.56
2018-05-02T11:18:19.236Z,34.33
2018-05-02T11:19:19.244Z,35.20
2018-05-02T11:21:12.155Z,34.91
2018-05-02T11:22:12.179Z,34.62
2018-05-02T11:24:05.110Z,34.72
2018-05-02T11:25:05.116Z,35.02
2018-05-02T11:26:58.027Z,33.37
2018-05-02T11:27:58.052Z,35.00
2018-05-02T11:29:50.989Z,35.00
2018-05-02T11:30:50.992Z,34.92
2018-05-02T11:32:43.909Z,34.16
2018-05-02T11:33:43.934Z,34.25
2018-05-02T11:35:36.862Z,34.92
2018-05-02T11:36:36.869Z,34.35
2018-05-02T11:38:29.809Z,34.25
2018-05-02T11:39:29.813Z,34.74
2018-05-02T11:41:22.724Z,35.31
2018-05-02T11:42:22.753Z,34.25
2018-05-02T11:44:15.676Z,33.87
2018-05-02T11:45:15.682Z,34.54
2018-05-02T11:47:08.592Z,33.67
2018-05-02T11:48:08.619Z,33.48
2018-05-02T11:50:01.553Z,33.39
2018-05-02T11:51:01.563Z,33.48
2018-05-02T11:52:54.473Z,34.54
2018-05-02T11:53:54.502Z,34.56
2018-05-02T11:55:47.430Z,33.69
2018-05-02T11:56:47.435Z,33.98
2018-05-02T11:58:40.366Z,34.08
2018-05-02T11:59:40.373Z,33.69
2018-05-02T12:01:33.286Z,33.40
2018-05-02T12:02:33.329Z,32.33
2018-05-02T12:04:26.244Z,30.88
2018-05-02T12:05:26.256Z,32.23
2018-05-02T12:07:19.370Z,33.48
2018-05-02T12:08:19.394Z,33.77
2018-05-02T12:10:12.337Z,33.10
2018-05-02T12:11:12.338Z,32.23
2018-05-02T12:13:05.251Z,33.02
2018-05-02T12:14:05.282Z,32.64
2018-05-02T12:15:58.473Z,33.89
2018-05-02T12:16:58.444Z,32.44
2018-05-02T12:18:51.389Z,32.54
2018-05-02T12:19:51.389Z,32.64
2018-05-02T12:21:44.324Z,32.36
2018-05-02T12:22:44.348Z,32.56
2018-05-02T12:24:37.288Z,32.54
2018-05-02T12:25:37.296Z,32.34
2018-05-02T12:27:30.211Z,32.73
2018-05-02T12:28:30.238Z,32.44
2018-05-02T12:30:23.168Z,33.69
2018-05-02T12:31:23.173Z,33.50
2018-05-02T12:33:16.089Z,33.98
2018-05-02T12:34:16.114Z,33.51
2018-05-02T12:36:09.045Z,32.65
2018-05-02T12:37:09.051Z,33.42
2018-05-02T12:39:01.998Z,32.65
2018-05-02T12:40:01.992Z,33.51
2018-05-02T12:41:54.908Z,31.21
2018-05-02T12:42:54.935Z,32.67
2018-05-02T12:44:47.862Z,35.06
2018-05-02T12:45:47.870Z,34.69
2018-05-02T12:47:40.784Z,34.09
2018-05-02T12:48:40.813Z,33.73
2018-05-02T12:50:33.749Z,32.18
2018-05-02T12:51:33.752Z,31.78
2018-05-02T12:53:26.669Z,32.94
2018-05-02T12:54:26.694Z,32.07
2018-05-02T12:56:19.889Z,32.75
2018-05-02T12:57:19.801Z,32.17
2018-05-02T12:59:12.744Z,33.44
2018-05-02T13:00:12.740Z,34.11
2018-05-02T13:02:05.659Z,31.22
2018-05-02T13:03:05.692Z,31.12
2018-05-02T13:04:58.647Z,31.90
2018-05-02T13:05:58.629Z,32.87
2018-05-02T13:07:51.551Z,32.01
2018-05-02T13:08:51.623Z,30.27
2018-05-02T13:10:44.513Z,29.39
2018-05-02T13:11:44.523Z,30.16
2018-05-02T13:13:37.435Z,32.47
2018-05-02T13:14:37.478Z,32.78
2018-05-02T13:16:30.398Z,32.49
2018-05-02T13:17:30.416Z,32.78
2018-05-02T13:19:23.523Z,30.46
2018-05-02T13:20:23.533Z,30.85
2018-05-02T13:22:16.479Z,32.31
2018-05-02T13:23:16.487Z,31.24
2018-05-02T13:25:09.427Z,30.67
2018-05-02T13:26:09.437Z,30.96
2018-05-02T13:28:02.356Z,31.45
2018-05-02T13:29:02.402Z,30.38
2018-05-02T13:30:55.549Z,29.97
2018-05-02T13:31:55.613Z,29.20
2018-05-02T13:33:48.477Z,30.73
2018-05-02T13:34:48.500Z,31.21
2018-05-02T13:36:41.439Z,31.01
2018-05-02T13:37:41.451Z,30.91
2018-05-02T13:39:34.395Z,31.11
2018-05-02T13:40:34.395Z,31.00
2018-05-02T13:42:27.308Z,32.44
2018-05-02T13:43:27.339Z,32.54
2018-05-02T13:45:20.270Z,32.64
2018-05-02T13:46:20.285Z,32.06
2018-05-02T13:48:13.237Z,32.65
2018-05-02T13:49:13.267Z,32.07
2018-05-02T13:51:06.156Z,32.38
2018-05-02T13:52:06.169Z,31.60
2018-05-02T13:53:59.082Z,31.70
2018-05-02T13:54:59.114Z,30.83
2018-05-02T13:56:52.099Z,31.12
2018-05-02T13:57:52.095Z,30.26
2018-05-02T13:59:44.971Z,32.38
2018-05-02T14:00:45.004Z,31.12
2018-05-02T14:02:37.931Z,31.22
2018-05-02T14:03:37.940Z,31.32
2018-05-02T14:05:30.877Z,31.51
2018-05-02T14:06:30.888Z,32.47
2018-05-02T14:08:23.902Z,30.76
2018-05-02T14:09:23.834Z,30.85
2018-05-02T14:11:16.823Z,29.69
2018-05-02T14:12:16.819Z,29.21
2018-05-02T14:14:09.698Z,30.37
2018-05-02T14:15:09.728Z,29.89
2018-05-02T14:17:02.659Z,30.18
2018-05-02T14:18:02.676Z,29.41
2018-05-02T14:19:55.731Z,29.41
2018-05-02T14:20:55.761Z,30.35
2018-05-02T14:22:48.919Z,30.26
2018-05-02T14:23:48.931Z,30.56
2018-05-02T14:25:41.949Z,30.27
2018-05-02T14:26:41.877Z,30.66
2018-05-02T14:28:34.799Z,30.85
2018-05-02T14:29:34.828Z,30.66
2018-05-02T14:31:27.985Z,31.06
2018-05-02T14:32:28.048Z,30.29
2018-05-02T14:34:20.914Z,28.92
2018-05-02T14:35:20.943Z,30.46
2018-05-02T14:37:13.881Z,29.49
2018-05-02T14:38:13.914Z,29.41
2018-05-02T14:40:06.805Z,31.41
2018-05-02T14:41:06.840Z,30.74
2018-05-02T14:42:59.769Z,30.37
2018-05-02T14:43:59.781Z,30.46
2018-05-02T14:45:52.777Z,31.24
2018-05-02T14:46:52.740Z,30.46
2018-05-02T14:48:45.645Z,30.64
2018-05-02T14:49:45.674Z,30.55
2018-05-02T14:51:38.639Z,31.41
2018-05-02T14:52:38.619Z,30.93
2018-05-02T14:54:31.545Z,31.80
2018-05-02T14:55:31.566Z,31.70
2018-05-02T14:57:24.499Z,32.18
2018-05-02T14:58:24.512Z,33.05
2018-05-02T15:00:17.468Z,32.67
2018-05-02T15:01:17.470Z,33.05
2018-05-02T15:03:10.582Z,32.17
2018-05-02T15:04:10.592Z,32.56
2018-05-02T15:06:03.527Z,33.03
2018-05-02T15:07:03.537Z,32.73
2018-05-02T15:08:56.455Z,33.51
2018-05-02T15:09:56.484Z,32.92
2018-05-02T15:11:49.498Z,32.71
2018-05-02T15:12:49.431Z,34.25
2018-05-02T15:14:42.351Z,33.79
2018-05-02T15:15:42.378Z,33.50
2018-05-02T15:17:35.310Z,33.98
2018-05-02T15:18:35.324Z,34.37
2018-05-02T15:20:28.239Z,33.98
2018-05-02T15:21:28.265Z,33.77
2018-05-02T15:23:21.258Z,33.58
2018-05-02T15:24:21.226Z,33.87
2018-05-02T15:26:14.136Z,34.45
2018-05-02T15:27:14.148Z,34.92
2018-05-02T15:29:07.567Z,34.74
2018-05-02T15:30:14.716Z,34.33
2018-05-02T15:32:00.738Z,35.49
2018-05-02T15:33:00.745Z,35.00
2018-05-02T15:34:54.168Z,35.39
2018-05-02T15:35:54.195Z,35.58
2018-05-02T15:37:47.115Z,35.20
2018-05-02T15:38:47.123Z,35.49
2018-05-02T15:40:40.038Z,35.20
2018-05-02T15:41:40.064Z,35.49
2018-05-02T15:43:33.159Z,36.45
2018-05-02T15:44:33.166Z,35.89
2018-05-02T15:46:26.330Z,35.70
2018-05-02T15:47:26.337Z,35.12
2018-05-02T15:49:19.506Z,35.50
2018-05-02T15:50:19.480Z,34.35
2018-05-02T15:52:12.631Z,35.22
2018-05-02T15:53:12.641Z,34.74
2018-05-02T15:55:05.558Z,35.52
2018-05-02T15:56:05.608Z,35.52
2018-05-02T15:57:58.533Z,35.24
2018-05-02T15:58:58.534Z,35.62
2018-05-02T16:00:51.939Z,34.84
2018-05-02T16:01:51.968Z,35.06
2018-05-02T16:03:44.900Z,34.00
2018-05-02T16:04:44.913Z,34.86
2018-05-02T16:06:37.840Z,34.00
2018-05-02T16:07:37.848Z,34.29
2018-05-02T16:09:30.771Z,33.13
2018-05-02T16:10:30.799Z,32.94
2018-05-02T16:12:23.791Z,33.23
2018-05-02T16:13:23.761Z,32.46
2018-05-02T16:15:16.653Z,32.84
2018-05-02T16:16:16.682Z,32.46
2018-05-02T16:18:09.829Z,33.51
2018-05-02T16:19:09.837Z,32.84
2018-05-02T16:21:02.973Z,33.50
2018-05-02T16:22:03.000Z,33.79
2018-05-02T16:23:55.930Z,33.98
2018-05-02T16:24:55.941Z,34.66
2018-05-02T16:26:48.871Z,34.56
2018-05-02T16:27:48.967Z,34.17
2018-05-02T16:29:41.793Z,34.27
2018-05-02T16:30:41.820Z,34.48
2018-05-02T16:32:34.753Z,34.94
2018-05-02T16:33:34.762Z,33.89
2018-05-02T16:35:27.673Z,34.08
2018-05-02T16:36:27.700Z,34.66
2018-05-02T16:38:20.635Z,34.66
2018-05-02T16:39:20.647Z,34.17
2018-05-02T16:41:13.749Z,35.24
2018-05-02T16:42:20.901Z,34.56
2018-05-02T16:44:06.925Z,34.27
2018-05-02T16:45:06.936Z,34.46
2018-05-02T16:46:59.868Z,34.94
2018-05-02T16:47:59.878Z,35.24
2018-05-02T16:49:52.790Z,35.62
2018-05-02T16:50:52.816Z,35.71
2018-05-02T16:52:45.890Z,34.64
2018-05-02T16:53:45.898Z,34.25
2018-05-02T16:55:38.814Z,34.64
2018-05-02T16:56:38.988Z,35.12
2018-05-02T16:58:31.771Z,35.60
2018-05-02T16:59:31.784Z,35.99
2018-05-02T17:01:24.698Z,36.18
2018-05-02T17:02:24.726Z,36.37
2018-05-02T17:04:17.747Z,36.35
2018-05-02T17:05:17.661Z,36.83
2018-05-02T17:07:10.596Z,37.22
2018-05-02T17:08:10.612Z,38.07
2018-05-02T17:10:03.517Z,38.35
2018-05-02T17:11:03.548Z,38.74
2018-05-02T17:12:56.473Z,38.74
2018-05-02T17:13:56.480Z,38.56
2018-05-02T17:15:49.398Z,39.12
2018-05-02T17:16:49.487Z,39.22
2018-05-02T17:18:42.354Z,39.22
2018-05-02T17:19:42.367Z,38.81
2018-05-02T17:21:35.408Z,39.58
2018-05-02T17:22:35.433Z,39.58
2018-05-02T17:24:28.373Z,39.97
2018-05-02T17:25:28.375Z,40.83
2018-05-02T17:27:21.304Z,40.25
2018-05-02T17:28:21.314Z,41.41
2018-05-02T17:30:14.454Z,39.97
2018-05-02T17:31:14.409Z,40.55
2018-05-02T17:33:07.352Z,41.50
2018-05-02T17:34:07.357Z,40.93
2018-05-02T17:36:00.393Z,40.16
2018-05-02T17:37:00.308Z,41.22
2018-05-02T17:38:53.238Z,41.22
2018-05-02T17:39:53.245Z,40.64
2018-05-02T17:41:46.159Z,41.41
2018-05-02T17:42:46.182Z,41.60
2018-05-02T17:44:39.108Z,41.12
2018-05-02T17:45:39.117Z,41.02
2018-05-02T17:47:32.052Z,41.31
2018-05-02T17:48:32.058Z,41.79
2018-05-02T17:50:24.972Z,41.79
2018-05-02T17:51:24.997Z,41.87
2018-05-02T17:53:19.188Z,41.79
2018-05-02T17:54:19.155Z,41.89
2018-05-02T17:56:12.315Z,41.77
2018-05-02T17:57:12.317Z,42.27
2018-05-02T17:59:05.265Z,41.77
2018-05-02T18:00:05.256Z,42.37
2018-05-02T18:01:58.164Z,42.25
2018-05-02T18:02:58.182Z,41.96
2018-05-02T18:04:51.233Z,41.99
2018-05-02T18:05:51.151Z,41.79
2018-05-02T18:07:44.227Z,41.99
2018-05-02T18:08:44.232Z,41.87
2018-05-02T18:10:37.153Z,41.58
2018-05-02T18:11:37.179Z,42.16
2018-05-02T18:13:30.108Z,42.16
2018-05-02T18:14:30.112Z,42.35
2018-05-02T18:16:23.144Z,41.70
2018-05-02T18:17:23.152Z,41.89
2018-05-02T18:19:16.109Z,41.70
2018-05-02T18:20:16.044Z,42.18
2018-05-02T18:22:09.090Z,41.99
2018-05-02T18:23:09.191Z,41.58
2018-05-02T18:25:02.064Z,42.16
2018-05-02T18:26:02.072Z,42.54
2018-05-02T18:27:54.980Z,43.12
2018-05-02T18:28:54.989Z,43.38
2018-05-02T18:30:47.904Z,44.06
2018-05-02T18:31:47.946Z,44.24
2018-05-02T18:33:40.862Z,44.73
2018-05-02T18:34:40.863Z,44.24